Time;durP1;ratioP1;P1;durP2;ratioP2;P2;SDS_P1;SDS_P2;PMS_P1;PMS_P2;Temp;Humidity;BMP_temperature;BMP_pressure;BME280_temperature;BME280_humidity;BME280_pressure;Samples;Min_cycle;Max_cycle;Signal;HPM_P1;HPM_P2
2022/05/13 00:01:53;;;;;;;7.13;1.45;;;;;;;15.43;49.69;101777.88;5010635;28;20046;-69
2022/05/13 00:04:18;;;;;;;4.90;1.13;;;;;;;15.50;49.70;101780.47;5009783;28;20034;-68
2022/05/13 00:06:44;;;;;;;6.47;1.13;;;;;;;15.31;50.39;101781.63;5011497;28;20037;-67
2022/05/13 00:09:09;;;;;;;5.97;1.10;;;;;;;15.59;49.45;101779.91;5010976;28;20080;-68
2022/05/13 00:11:34;;;;;;;4.75;0.93;;;;;;;15.65;49.23;101778.13;5010715;28;20041;-68
2022/05/13 00:14:02;;;;;;;4.70;1.40;;;;;;;15.49;49.59;101768.81;5010861;28;20417;-68
2022/05/13 00:16:28;;;;;;;6.75;1.58;;;;;;;15.57;49.29;101776.59;5011819;28;20050;-69
2022/05/13 00:18:53;;;;;;;6.68;1.50;;;;;;;15.61;49.22;101769.66;5014682;28;20497;-69
2022/05/13 00:21:19;;;;;;;3.28;1.40;;;;;;;15.67;49.27;101767.88;5015482;28;20077;-67
2022/05/13 00:23:44;;;;;;;4.05;1.00;;;;;;;15.36;49.78;101781.72;5014890;28;20140;-68
2022/05/13 00:26:10;;;;;;;6.13;1.50;;;;;;;15.36;49.79;101776.31;5014593;28;20137;-67
2022/05/13 00:28:35;;;;;;;6.35;2.20;;;;;;;15.62;49.09;101765.06;5014506;28;20042;-68
2022/05/13 00:31:04;;;;;;;3.28;1.20;;;;;;;15.87;48.41;101756.66;5014589;28;20389;-69
2022/05/13 00:33:30;;;;;;;9.15;1.10;;;;;;;15.72;48.90;101766.09;5015149;28;20057;-70
2022/05/13 00:35:57;;;;;;;5.93;1.73;;;;;;;15.35;49.55;101763.84;5014765;28;20168;-69
2022/05/13 00:38:22;;;;;;;5.28;1.15;;;;;;;15.35;50.00;101759.22;5014520;28;20129;-68
2022/05/13 00:40:48;;;;;;;7.57;1.48;;;;;;;15.61;49.23;101764.22;5014675;28;20038;-69
2022/05/13 00:43:35;;;;;;;7.05;1.90;;;;;;;15.46;49.64;101754.91;5014653;28;20038;-69
2022/05/13 00:46:03;;;;;;;4.60;1.42;;;;;;;15.51;49.06;101750.44;5014287;28;20493;-69
2022/05/13 00:48:28;;;;;;;2.58;1.45;;;;;;;14.97;50.87;101756.13;5014949;28;20061;-68
2022/05/13 00:50:54;;;;;;;6.22;1.52;;;;;;;14.73;51.24;101757.09;5014072;28;20049;-69
2022/05/13 00:53:20;;;;;;;3.40;1.17;;;;;;;14.78;51.63;101754.53;5029446;28;20492;-70
2022/05/13 00:55:46;;;;;;;7.43;1.88;;;;;;;15.24;50.35;101754.63;5014337;28;20108;-70
2022/05/13 00:58:17;;;;;;;3.70;1.55;;;;;;;15.13;50.48;101752.75;5013886;28;20053;-69
2022/05/13 01:00:43;;;;;;;4.68;1.50;;;;;;;15.05;51.06;101750.38;5014430;28;20029;-69
2022/05/13 01:03:11;;;;;;;2.65;1.25;;;;;;;15.05;51.34;101760.38;5013486;28;20054;-68
2022/05/13 01:05:40;;;;;;;5.63;1.35;;;;;;;15.16;51.07;101760.38;5013956;28;20563;-67
2022/05/13 01:08:07;;;;;;;3.88;1.42;;;;;;;14.91;52.29;101752.47;5014033;28;20053;-68
2022/05/13 01:10:35;;;;;;;5.00;1.23;;;;;;;15.43;51.12;101744.56;5013838;28;20512;-67
2022/05/13 01:13:07;;;;;;;10.40;1.30;;;;;;;15.33;51.65;101734.25;5013643;28;20117;-69
2022/05/13 01:15:35;;;;;;;5.32;1.90;;;;;;;15.17;52.27;101744.97;5014656;28;20061;-68
2022/05/13 01:18:07;;;;;;;6.88;2.53;;;;;;;15.37;51.82;101740.84;5013758;28;20084;-69
2022/05/13 01:20:34;;;;;;;4.20;1.10;;;;;;;15.26;52.16;101738.16;5013775;28;20042;-68
2022/05/13 01:23:12;;;;;;;8.35;1.50;;;;;;;15.42;51.60;101729.38;5013731;28;20045;-68
2022/05/13 01:25:44;;;;;;;5.20;1.42;;;;;;;15.19;52.69;101735.56;5013631;28;20157;-69
2022/05/13 01:28:18;;;;;;;5.30;1.38;;;;;;;15.10;53.18;101728.81;5013215;28;20109;-69
2022/05/13 01:30:54;;;;;;;4.65;1.75;;;;;;;15.03;53.19;101724.59;5014302;28;20496;-68
2022/05/13 01:33:20;;;;;;;7.88;2.30;;;;;;;15.11;52.95;101725.06;5014016;28;20049;-69
2022/05/13 01:35:48;;;;;;;3.70;1.50;;;;;;;15.10;53.24;101728.00;5013520;28;20448;-68
2022/05/13 01:38:15;;;;;;;7.13;1.90;;;;;;;14.98;53.61;101725.28;5013423;28;20072;-68
2022/05/13 01:40:41;;;;;;;4.20;1.60;;;;;;;15.11;53.09;101729.66;5013295;28;20040;-69
2022/05/13 01:43:07;;;;;;;9.15;2.03;;;;;;;14.98;53.76;101732.59;5013379;28;20493;-69
2022/05/13 01:45:33;;;;;;;6.38;1.50;;;;;;;15.02;53.76;101722.94;5013678;28;20512;-69
2022/05/13 01:47:58;;;;;;;2.08;1.20;;;;;;;15.01;53.92;101719.41;5013392;28;20037;-69
2022/05/13 01:50:26;;;;;;;13.15;1.70;;;;;;;14.84;54.14;101731.94;5013257;28;20036;-68
2022/05/13 01:52:52;;;;;;;6.40;1.52;;;;;;;14.92;54.34;101729.72;5013228;28;20080;-68
2022/05/13 01:55:19;;;;;;;7.10;1.67;;;;;;;14.80;54.72;101728.88;5012705;28;20037;-68
2022/05/13 01:57:44;;;;;;;4.93;1.48;;;;;;;15.34;53.46;101727.81;5013478;28;20041;-68
2022/05/13 02:00:10;;;;;;;8.68;1.88;;;;;;;14.89;54.85;101723.97;5013115;28;20046;-69
2022/05/13 02:03:44;;;;;;;8.98;1.90;;;;;;;15.37;53.22;101715.69;5012432;28;20053;-69
2022/05/13 02:05:21;;;;;;;3.25;1.42;;;;;;;14.98;54.21;101723.41;5012977;28;20041;-68
2022/05/13 02:07:46;;;;;;;5.65;1.55;;;;;;;15.02;54.20;101712.13;5012864;28;20048;-70
2022/05/13 02:10:12;;;;;;;7.20;1.60;;;;;;;14.94;54.72;101714.09;5012585;28;20097;-68
2022/05/13 02:12:37;;;;;;;11.35;3.00;;;;;;;14.79;54.83;101721.84;5013140;28;20496;-69
2022/05/13 02:15:04;;;;;;;7.75;1.63;;;;;;;14.85;54.89;101718.19;5012852;28;20061;-69
2022/05/13 02:17:30;;;;;;;6.93;2.03;;;;;;;14.45;56.06;101716.28;5012949;28;20113;-69
2022/05/13 02:19:55;;;;;;;7.38;1.90;;;;;;;14.66;55.88;101723.91;5013216;28;20120;-69
2022/05/13 02:22:20;;;;;;;10.85;2.65;;;;;;;14.60;56.12;101728.34;5012633;28;20050;-69
2022/05/13 02:24:46;;;;;;;8.57;2.08;;;;;;;14.78;55.78;101725.56;5013239;28;20068;-68
2022/05/13 02:27:11;;;;;;;9.60;1.73;;;;;;;14.67;56.41;101726.38;5012192;28;20076;-70
2022/05/13 02:29:37;;;;;;;5.18;1.80;;;;;;;14.13;57.87;101736.44;5012427;28;20049;-69
2022/05/13 02:32:02;;;;;;;4.78;1.95;;;;;;;14.61;56.45;101726.47;5012607;28;20452;-70
2022/05/13 02:34:28;;;;;;;9.80;1.63;;;;;;;14.50;57.05;101730.78;5013056;28;20033;-70
2022/05/13 02:36:53;;;;;;;8.60;1.73;;;;;;;14.95;55.62;101725.75;5012724;28;20088;-70
2022/05/13 02:39:18;;;;;;;8.65;1.77;;;;;;;14.66;56.74;101719.31;5012134;28;20041;-69
2022/05/13 02:41:44;;;;;;;10.60;2.75;;;;;;;14.48;57.42;101718.53;5012451;28;20050;-70
2022/05/13 02:44:10;;;;;;;7.22;1.55;;;;;;;14.77;56.73;101720.41;5012122;28;20041;-69
2022/05/13 02:46:36;;;;;;;6.45;1.73;;;;;;;14.64;57.24;101723.31;5010820;28;20045;-68
2022/05/13 02:49:02;;;;;;;5.55;2.40;;;;;;;15.07;56.19;101723.88;5012532;28;20159;-70
2022/05/13 02:51:28;;;;;;;7.95;2.50;;;;;;;14.81;57.23;101710.78;5012654;28;20030;-70
2022/05/13 02:53:54;;;;;;;10.18;2.78;;;;;;;15.11;56.32;101705.28;5012003;28;20048;-69
2022/05/13 02:56:21;;;;;;;9.75;2.20;;;;;;;15.01;56.68;101703.16;5012013;28;20075;-71
2022/05/13 02:58:47;;;;;;;8.73;2.50;;;;;;;15.08;56.81;101686.78;5012186;28;20058;-68
2022/05/13 03:01:14;;;;;;;9.40;2.45;;;;;;;15.00;57.62;101679.03;5011581;28;20049;-70
2022/05/13 03:03:43;;;;;;;12.93;2.50;;;;;;;14.81;58.14;101679.13;5012328;28;20137;-70
2022/05/13 03:06:09;;;;;;;8.18;2.13;;;;;;;15.13;57.32;101678.81;5011872;28;20037;-70
2022/05/13 03:08:35;;;;;;;6.57;2.20;;;;;;;15.14;57.62;101675.03;5010320;28;20099;-69
2022/05/13 03:11:02;;;;;;;9.57;2.88;;;;;;;14.86;59.06;101681.94;5001559;28;20516;-69
2022/05/13 03:13:28;;;;;;;11.75;3.22;;;;;;;15.18;58.28;101687.88;5011759;28;20061;-69
2022/05/13 03:15:53;;;;;;;9.05;2.88;;;;;;;14.87;59.31;101686.31;5011831;28;20101;-69
2022/05/13 03:18:19;;;;;;;11.20;3.08;;;;;;;14.85;59.76;101685.72;5012195;28;20030;-69
2022/05/13 03:20:44;;;;;;;16.38;3.60;;;;;;;14.73;60.51;101689.44;5011921;28;20034;-69
2022/05/13 03:23:10;;;;;;;12.55;3.47;;;;;;;15.19;59.31;101683.28;5026623;28;20045;-69
2022/05/13 03:25:35;;;;;;;8.38;2.85;;;;;;;14.77;60.84;101698.75;5011695;28;20034;-69
2022/05/13 03:28:01;;;;;;;18.40;3.92;;;;;;;15.40;59.02;101697.06;5011605;28;20492;-69
2022/05/13 03:30:26;;;;;;;8.77;2.22;;;;;;;14.60;61.42;101708.59;5012053;28;20018;-70
2022/05/13 03:32:53;;;;;;;15.00;3.50;;;;;;;14.93;60.64;101707.03;5011686;28;20049;-70
2022/05/13 03:35:21;;;;;;;14.43;2.80;;;;;;;14.69;61.24;101702.63;5011624;28;20107;-67
2022/05/13 03:37:46;;;;;;;14.88;3.28;;;;;;;15.34;59.31;101689.06;5011534;28;20085;-70
2022/05/13 03:40:14;;;;;;;13.13;3.65;;;;;;;15.07;60.67;101693.28;5011249;28;20033;-70
2022/05/13 03:42:39;;;;;;;18.50;3.70;;;;;;;14.98;60.51;101693.63;5011770;28;20563;-69
2022/05/13 03:45:07;;;;;;;9.77;3.13;;;;;;;15.32;59.33;101694.72;5011501;28;20037;-69
2022/05/13 03:47:32;;;;;;;11.50;3.38;;;;;;;15.14;60.51;101699.41;5010878;28;20056;-69
2022/05/13 03:49:58;;;;;;;13.40;3.28;;;;;;;15.30;60.02;101704.94;5011227;28;20045;-69
2022/05/13 03:52:24;;;;;;;17.45;4.60;;;;;;;15.17;60.58;101707.06;5010558;28;20493;-69
2022/05/13 03:54:49;;;;;;;13.60;3.40;;;;;;;15.12;60.61;101723.16;5011959;28;20053;-70
2022/05/13 03:57:15;;;;;;;12.50;3.30;;;;;;;14.82;62.02;101707.00;5010820;28;20034;-69
2022/05/13 03:59:40;;;;;;;18.50;4.47;;;;;;;15.24;60.81;101713.19;5010716;28;20103;-68
2022/05/13 04:02:06;;;;;;;12.07;3.22;;;;;;;14.74;62.52;101713.56;5019054;28;20111;-68
2022/05/13 04:08:56;;;;;;;15.52;3.40;;;;;;;14.65;62.89;101714.13;5030625;28;20419;-68
2022/05/13 04:10:04;;;;;;;21.05;5.68;;;;;;;15.32;60.62;101718.25;5017476;28;20400;-69
2022/05/13 04:17:58;;;;;;;11.77;3.50;;;;;;;15.65;59.47;101718.50;5011001;28;20048;-70
2022/05/13 04:20:23;;;;;;;12.27;3.72;;;;;;;15.35;60.54;101725.91;5010279;28;20401;-68
2022/05/13 04:22:48;;;;;;;10.52;3.08;;;;;;;15.49;59.72;101728.19;5010605;28;20041;-69
2022/05/13 04:25:17;;;;;;;12.02;3.78;;;;;;;15.39;60.11;101736.03;5011059;28;20056;-67
2022/05/13 04:27:43;;;;;;;13.60;3.50;;;;;;;15.72;59.01;101720.03;5006166;28;20122;-67
2022/05/13 04:30:09;;;;;;;14.52;3.58;;;;;;;15.57;59.34;101722.41;4991257;28;20038;-67
2022/05/13 04:32:34;;;;;;;11.45;2.97;;;;;;;15.63;59.23;101728.75;4991378;28;20085;-70
2022/05/13 04:35:01;;;;;;;9.48;3.47;;;;;;;15.75;58.90;101724.16;4991290;28;20034;-68
2022/05/13 04:37:27;;;;;;;18.45;4.82;;;;;;;16.05;58.05;101732.13;4991154;28;20401;-69
2022/05/13 04:39:53;;;;;;;9.27;3.05;;;;;;;16.19;57.80;101728.09;4991218;28;20065;-69
2022/05/13 04:45:05;;;;;;;10.93;3.58;;;;;;;15.73;58.73;101721.69;5010388;28;20037;-68
2022/05/13 04:50:14;;;;;;;14.18;2.97;;;;;;;16.24;57.48;101733.59;5010484;28;20163;-68
2022/05/13 04:52:40;;;;;;;17.48;3.47;;;;;;;16.30;57.30;101728.03;5010586;28;20065;-69
2022/05/13 04:55:05;;;;;;;12.98;2.50;;;;;;;15.89;58.42;101739.09;5010572;28;20038;-69
2022/05/13 04:57:31;;;;;;;14.93;2.95;;;;;;;16.55;56.59;101739.41;5010597;28;20428;-71
2022/05/13 04:59:56;;;;;;;18.63;4.45;;;;;;;16.49;56.66;101745.81;5010357;28;20080;-69
2022/05/13 05:02:22;;;;;;;11.63;3.35;;;;;;;15.71;59.23;101753.63;5010837;28;20052;-69
2022/05/13 05:04:47;;;;;;;7.07;3.17;;;;;;;16.35;57.08;101744.41;5013821;28;20041;-69
2022/05/13 05:07:13;;;;;;;13.15;3.38;;;;;;;16.48;56.68;101755.03;5013950;28;20446;-69
2022/05/13 05:09:39;;;;;;;8.68;2.65;;;;;;;16.32;56.84;101761.19;5009697;28;20042;-70
2022/05/13 05:12:05;;;;;;;13.77;3.40;;;;;;;16.37;56.92;101761.25;4994091;28;20042;-69
2022/05/13 05:14:32;;;;;;;11.05;2.17;;;;;;;16.85;55.47;101760.03;4994239;28;20034;-70
2022/05/13 05:16:57;;;;;;;12.45;3.00;;;;;;;16.66;56.12;101757.56;4994402;28;20042;-70
2022/05/13 05:19:23;;;;;;;16.95;4.00;;;;;;;16.44;56.68;101769.28;4993947;28;20027;-70
2022/05/13 05:21:48;;;;;;;10.73;3.22;;;;;;;16.38;56.88;101772.94;4994491;28;20057;-69
2022/05/13 05:24:14;;;;;;;15.50;3.33;;;;;;;16.25;57.29;101768.63;4994184;28;20462;-70
2022/05/13 05:26:39;;;;;;;12.55;3.20;;;;;;;16.66;56.15;101773.00;5002513;28;20037;-69
2022/05/13 05:29:05;;;;;;;13.07;3.25;;;;;;;16.79;55.47;101775.41;5008099;28;20568;-69
2022/05/13 05:31:30;;;;;;;8.68;2.42;;;;;;;16.49;56.54;101778.38;5006499;28;20112;-69
2022/05/13 05:33:55;;;;;;;11.30;2.90;;;;;;;16.96;55.65;101780.88;5002724;28;20034;-69
2022/05/13 05:36:21;;;;;;;11.93;3.17;;;;;;;16.49;56.94;101783.00;5008059;28;20022;-70
2022/05/13 05:38:46;;;;;;;9.35;3.33;;;;;;;16.21;58.05;101786.44;4999092;28;20042;-69
2022/05/13 05:41:12;;;;;;;10.02;3.40;;;;;;;16.25;57.83;101779.47;5013161;28;20038;-70
2022/05/13 05:43:37;;;;;;;9.23;3.05;;;;;;;16.38;57.42;101783.78;5013801;28;20382;-69
2022/05/13 05:46:03;;;;;;;15.18;3.03;;;;;;;16.96;55.95;101786.31;5013035;28;20075;-69
2022/05/13 05:48:29;;;;;;;11.73;3.53;;;;;;;17.02;55.54;101793.50;5013703;28;20056;-70
2022/05/13 05:50:58;;;;;;;7.18;2.97;;;;;;;17.01;55.70;101792.66;5013008;28;20092;-68
2022/05/13 05:58:55;;;;;;;11.88;3.10;;;;;;;17.25;55.16;101791.47;5007951;28;20052;-69
2022/05/13 06:01:21;;;;;;;12.15;3.30;;;;;;;17.16;55.16;101797.56;5006220;28;20045;-70
2022/05/13 06:03:46;;;;;;;11.45;3.25;;;;;;;17.52;54.36;101800.63;5008428;28;20425;-69
2022/05/13 06:06:12;;;;;;;16.52;4.25;;;;;;;17.59;54.33;101807.81;5011821;28;20030;-69
2022/05/13 06:08:39;;;;;;;21.65;3.75;;;;;;;17.85;53.62;101802.50;5011331;28;20030;-69
2022/05/13 06:11:04;;;;;;;11.20;2.85;;;;;;;18.04;52.61;101811.22;4992944;28;20084;-69
2022/05/13 06:13:30;;;;;;;7.00;2.70;;;;;;;18.12;52.30;101817.00;4995511;28;20126;-69
2022/05/13 06:15:55;;;;;;;9.90;3.20;;;;;;;17.41;54.71;101817.00;5004709;28;20311;-68
2022/05/13 06:18:20;;;;;;;6.65;2.92;;;;;;;17.57;53.92;101813.50;5002154;28;20037;-69
2022/05/13 06:20:46;;;;;;;16.60;4.53;;;;;;;17.44;54.61;101822.75;5005327;28;20041;-70
2022/05/13 06:23:12;;;;;;;10.38;3.60;;;;;;;18.15;52.65;101813.81;5006234;28;20117;-69
2022/05/13 06:25:39;;;;;;;12.50;3.20;;;;;;;17.20;54.94;101821.25;5012863;28;20229;-69
2022/05/13 06:28:05;;;;;;;12.48;3.03;;;;;;;17.66;53.61;101811.16;5011408;28;20034;-68
2022/05/13 06:30:33;;;;;;;9.93;2.53;;;;;;;17.66;53.95;101817.44;5011379;28;20038;-69
2022/05/13 06:32:59;;;;;;;14.93;3.08;;;;;;;18.05;52.92;101813.66;5007154;28;20142;-68
2022/05/13 06:35:27;;;;;;;6.55;2.75;;;;;;;18.19;52.95;101805.97;5003402;28;20130;-70
2022/05/13 06:37:52;;;;;;;8.40;3.22;;;;;;;17.68;54.00;101806.31;5001768;28;20038;-69
2022/05/13 06:40:18;;;;;;;9.63;2.83;;;;;;;17.50;54.67;101813.66;5002816;28;20116;-69
2022/05/13 06:42:44;;;;;;;9.40;2.83;;;;;;;17.48;54.40;101817.66;5000674;28;20088;-69
2022/05/13 06:45:10;;;;;;;7.07;2.90;;;;;;;17.35;55.11;101816.09;5001479;28;20054;-68
2022/05/13 06:47:36;;;;;;;12.32;2.78;;;;;;;17.56;54.48;101828.13;5001013;28;20040;-68
2022/05/13 06:50:04;;;;;;;12.68;2.65;;;;;;;17.51;54.20;101826.16;5008771;28;20096;-68
2022/05/13 06:52:29;;;;;;;16.92;3.00;;;;;;;16.94;55.77;101829.19;5002361;28;20516;-71
2022/05/13 06:54:55;;;;;;;13.60;3.40;;;;;;;17.15;55.16;101829.31;4992199;28;20039;-68
2022/05/13 06:57:20;;;;;;;10.07;3.78;;;;;;;17.12;55.72;101839.84;4992731;28;20072;-69
2022/05/13 06:59:46;;;;;;;9.90;3.35;;;;;;;17.43;54.93;101845.56;4992227;28;20038;-70
2022/05/13 07:02:11;;;;;;;9.23;2.72;;;;;;;17.34;54.68;101841.59;4999862;28;20248;-68
2022/05/13 07:04:37;;;;;;;9.15;2.97;;;;;;;18.02;53.19;101841.38;5005702;28;20046;-70
2022/05/13 07:07:02;;;;;;;12.85;2.95;;;;;;;18.03;52.73;101839.47;4990104;28;20037;-69
2022/05/13 07:09:28;;;;;;;8.25;3.22;;;;;;;18.42;51.67;101844.69;5001588;28;20108;-70
2022/05/13 07:11:54;;;;;;;12.18;2.50;;;;;;;19.20;50.09;101837.94;5006558;28;20046;-69
2022/05/13 07:14:20;;;;;;;10.45;2.88;;;;;;;18.42;49.80;101844.69;4991227;28;20157;-71
2022/05/13 07:16:45;;;;;;;11.63;3.42;;;;;;;17.92;50.03;101848.56;5000575;28;20540;-69
2022/05/13 07:19:11;;;;;;;8.07;2.10;;;;;;;17.83;51.06;101855.47;5008534;28;20057;-68
2022/05/13 07:21:36;;;;;;;6.10;2.00;;;;;;;18.22;50.23;101846.28;5010609;28;20041;-68
2022/05/13 07:24:01;;;;;;;10.80;2.42;;;;;;;18.97;48.76;101860.03;5003132;28;20069;-69
2022/05/13 07:26:27;;;;;;;6.88;1.65;;;;;;;18.26;50.04;101850.97;5005712;28;20034;-68
2022/05/13 07:28:52;;;;;;;5.78;2.10;;;;;;;18.06;50.48;101858.03;4993576;28;20042;-70
2022/05/13 07:31:18;;;;;;;9.60;1.92;;;;;;;18.21;49.78;101859.06;5010452;28;20018;-68
2022/05/13 07:33:43;;;;;;;7.85;2.13;;;;;;;18.77;48.16;101854.38;5000978;28;20045;-69
2022/05/13 07:36:08;;;;;;;8.75;1.98;;;;;;;18.66;48.79;101852.59;5005019;28;20031;-69
2022/05/13 07:38:34;;;;;;;4.82;2.00;;;;;;;17.89;50.58;101863.47;5000375;28;20145;-67
2022/05/13 07:41:35;;;;;;;8.20;2.13;;;;;;;17.99;50.26;101866.34;5006362;28;20507;-68
2022/05/13 07:43:54;;;;;;;6.35;1.63;;;;;;;18.32;48.83;101869.00;5006012;28;20179;-69
2022/05/13 07:46:19;;;;;;;3.58;1.58;;;;;;;18.34;48.16;101872.28;5004726;28;20117;-67
2022/05/13 07:48:45;;;;;;;4.72;1.95;;;;;;;18.23;48.86;101881.41;5005095;28;20045;-69
2022/05/13 07:51:11;;;;;;;5.60;1.25;;;;;;;18.87;47.14;101882.53;5010058;28;20407;-68
2022/05/13 07:53:37;;;;;;;4.20;1.58;;;;;;;18.33;48.07;101884.28;5006079;28;20038;-68
2022/05/13 07:56:03;;;;;;;7.05;1.77;;;;;;;18.58;47.10;101872.91;5000818;28;20021;-67
2022/05/13 07:58:29;;;;;;;4.78;2.15;;;;;;;18.66;47.28;101885.25;5002709;28;20389;-68
2022/05/13 08:00:55;;;;;;;6.00;1.27;;;;;;;18.53;47.50;101896.53;4990070;28;20038;-71
2022/05/13 08:03:21;;;;;;;14.90;3.60;;;;;;;19.39;45.91;101879.31;4990883;28;20188;-69
2022/05/13 08:05:50;;;;;;;6.70;2.03;;;;;;;18.98;46.11;101881.59;5004894;28;20401;-69
2022/05/13 08:08:19;;;;;;;9.35;1.80;;;;;;;19.21;46.10;101878.56;4998872;28;20064;-67
2022/05/13 08:10:49;;;;;;;6.65;1.58;;;;;;;18.98;46.55;101894.38;5010322;28;20153;-70
2022/05/13 08:13:14;;;;;;;7.72;2.20;;;;;;;19.34;45.54;101885.53;5008380;28;20038;-68
2022/05/13 08:15:40;;;;;;;6.32;2.00;;;;;;;19.17;46.07;101882.88;4990729;28;20043;-70
2022/05/13 08:18:06;;;;;;;11.02;2.45;;;;;;;19.34;46.41;101890.16;5002825;28;20037;-68
2022/05/13 08:20:32;;;;;;;8.75;2.05;;;;;;;19.70;45.07;101895.69;5003140;28;20451;-69
2022/05/13 08:22:58;;;;;;;3.55;1.50;;;;;;;19.39;44.79;101887.47;4993736;28;20038;-69
2022/05/13 08:25:25;;;;;;;8.20;1.90;;;;;;;19.62;44.66;101887.16;4990585;28;20114;-70
2022/05/13 08:27:51;;;;;;;11.15;1.73;;;;;;;19.45;45.43;101892.72;4990553;28;20064;-69
2022/05/13 08:30:18;;;;;;;7.90;1.90;;;;;;;19.56;45.37;101894.47;5009761;28;20426;-71
2022/05/13 08:32:43;;;;;;;6.65;2.00;;;;;;;19.87;44.80;101898.28;5007071;28;20558;-69
2022/05/13 08:35:11;;;;;;;4.40;1.40;;;;;;;19.62;44.35;101901.59;5009774;28;20038;-69
2022/05/13 08:37:44;;;;;;;4.13;1.63;;;;;;;20.13;43.11;101900.94;4991444;28;20489;-67
2022/05/13 08:40:42;;;;;;;7.25;1.65;;;;;;;19.89;43.19;101896.91;5005209;28;20035;-69
2022/05/13 08:43:13;;;;;;;6.13;1.50;;;;;;;20.04;43.15;101905.25;5005703;28;20056;-68
2022/05/13 08:45:43;;;;;;;5.97;1.40;;;;;;;20.50;42.80;101906.38;5004047;28;20035;-69
2022/05/13 08:48:14;;;;;;;5.28;1.35;;;;;;;20.33;42.67;101908.47;5006026;28;20493;-70
2022/05/13 08:50:53;;;;;;;11.23;2.13;;;;;;;19.94;43.51;101916.06;5005204;28;20042;-68
2022/05/13 08:53:40;;;;;;;4.82;1.30;;;;;;;20.08;43.75;101916.44;5004019;28;20062;-70
2022/05/13 08:56:08;;;;;;;3.53;1.60;;;;;;;20.75;41.94;101911.16;5005424;28;20393;-69
2022/05/13 08:58:36;;;;;;;7.07;2.13;;;;;;;20.09;43.30;101921.63;5000682;28;20034;-69
2022/05/13 09:01:06;;;;;;;2.88;1.10;;;;;;;20.44;42.49;101920.28;5003505;28;20060;-69
2022/05/13 09:03:54;;;;;;;9.93;2.17;;;;;;;20.06;43.53;101916.72;5001672;28;20053;-67
2022/05/13 09:06:52;;;;;;;8.38;2.58;;;;;;;20.27;43.01;101919.59;5002685;28;20045;-69
2022/05/13 09:09:18;;;;;;;7.72;1.27;;;;;;;19.92;42.87;101923.69;5009723;28;20520;-68
2022/05/13 09:11:55;;;;;;;4.40;0.90;;;;;;;20.07;43.67;101922.97;5009250;28;20038;-68
2022/05/13 09:14:50;;;;;;;7.55;1.85;;;;;;;20.66;41.43;101915.44;5009310;28;20038;-68
2022/05/13 09:17:21;;;;;;;11.48;1.65;;;;;;;19.87;43.42;101936.47;5009628;28;20096;-68
2022/05/13 09:19:52;;;;;;;7.35;1.60;;;;;;;19.50;44.61;101922.75;5011156;28;20551;-68
2022/05/13 09:22:18;;;;;;;8.10;1.63;;;;;;;19.82;44.02;101926.34;5012667;28;20489;-68
2022/05/13 09:24:45;;;;;;;7.13;1.40;;;;;;;19.67;43.80;101930.84;4997519;28;20050;-67
2022/05/13 09:27:11;;;;;;;5.40;1.83;;;;;;;19.83;43.86;101932.63;5004827;28;20057;-68
2022/05/13 09:29:39;;;;;;;8.35;1.30;;;;;;;19.79;43.95;101921.38;5012215;28;20168;-69
2022/05/13 09:32:07;;;;;;;4.93;1.02;;;;;;;20.02;44.19;101936.59;5012459;28;20041;-68
2022/05/13 09:34:49;;;;;;;7.57;1.95;;;;;;;20.38;42.65;101930.34;5000018;28;20040;-66
2022/05/13 09:37:22;;;;;;;11.70;1.50;;;;;;;19.58;44.47;101930.47;5011987;28;20042;-69
2022/05/13 09:39:50;;;;;;;4.53;1.30;;;;;;;20.06;43.04;101921.34;5001127;28;20049;-67
2022/05/13 09:42:26;;;;;;;5.20;1.00;;;;;;;19.75;43.16;101922.19;5011821;28;20037;-69
2022/05/13 09:45:14;;;;;;;5.88;1.40;;;;;;;20.58;42.05;101927.72;5009707;28;20030;-68
2022/05/13 09:47:40;;;;;;;10.45;1.50;;;;;;;20.21;42.68;101932.41;5004428;28;20120;-69
2022/05/13 09:50:24;;;;;;;9.07;1.42;;;;;;;21.28;40.85;101919.00;5011985;28;20129;-68
2022/05/13 09:52:49;;;;;;;5.53;2.03;;;;;;;21.02;41.34;101916.47;5012250;28;20030;-69
2022/05/13 09:55:39;;;;;;;3.53;1.00;;;;;;;20.51;42.41;101934.50;5001252;28;20077;-69
2022/05/13 09:58:15;;;;;;;8.02;1.45;;;;;;;20.19;43.02;101936.47;5023667;28;20046;-68
2022/05/13 10:00:43;;;;;;;8.75;1.67;;;;;;;20.72;41.85;101930.78;4998150;28;20088;-71
2022/05/13 10:03:27;;;;;;;10.23;2.22;;;;;;;20.81;41.92;101932.72;4992613;28;20050;-69
2022/05/13 10:06:04;;;;;;;9.95;1.73;;;;;;;20.58;42.38;101944.09;5005969;28;20521;-70
2022/05/13 10:08:30;;;;;;;10.52;1.25;;;;;;;21.63;40.07;101945.59;5012422;28;20406;-70
2022/05/13 10:14:27;;;;;;;4.85;1.38;;;;;;;20.43;41.65;101951.38;5005507;28;20165;-68
2022/05/13 10:16:56;;;;;;;6.40;1.85;;;;;;;20.49;42.19;101958.53;4986122;28;20445;-68
2022/05/13 10:19:49;;;;;;;8.35;1.52;;;;;;;20.62;41.59;101953.41;4990107;28;20057;-67
2022/05/13 10:22:36;;;;;;;3.92;0.90;;;;;;;20.39;42.32;101956.56;4990802;28;20062;-70
2022/05/13 10:25:08;;;;;;;4.68;1.27;;;;;;;20.52;42.74;101958.00;5006278;28;20133;-70
2022/05/13 10:27:44;;;;;;;5.07;1.15;;;;;;;21.06;41.60;101964.03;5008666;28;20034;-70
2022/05/13 10:30:42;;;;;;;6.38;1.25;;;;;;;20.79;42.10;101975.09;5008767;28;20397;-68
2022/05/13 10:33:23;;;;;;;7.22;1.20;;;;;;;21.58;40.44;101960.09;5008605;28;20140;-70
2022/05/13 10:36:09;;;;;;;6.45;1.60;;;;;;;21.84;39.19;101961.78;4972368;28;20062;-69
2022/05/13 10:38:46;;;;;;;6.22;1.10;;;;;;;21.10;40.20;101965.16;4992142;28;20094;-70
2022/05/13 10:41:30;;;;;;;6.47;1.65;;;;;;;21.02;40.97;101968.38;4987220;28;20042;-69
2022/05/13 10:44:16;;;;;;;6.90;1.30;;;;;;;20.48;41.48;101976.00;4990996;28;20069;-69
2022/05/13 10:46:52;;;;;;;8.45;1.55;;;;;;;20.86;41.36;101971.03;4996325;28;20037;-70
2022/05/13 10:49:19;;;;;;;5.57;1.70;;;;;;;20.32;42.15;101972.34;4989437;28;20039;-70
2022/05/13 10:51:53;;;;;;;3.15;1.02;;;;;;;21.51;40.78;101973.22;5005152;28;20068;-70
2022/05/13 10:54:24;;;;;;;10.63;1.40;;;;;;;21.15;40.57;101971.44;4996745;28;20057;-69
2022/05/13 10:56:58;;;;;;;;;;;;;;;21.07;40.37;101973.91;5001166;28;20084;-67
2022/05/13 10:59:48;;;;;;;9.85;2.55;;;;;;;20.86;40.88;101967.47;5004170;28;19972;-68
2022/05/13 11:02:13;;;;;;;3.67;1.83;;;;;;;20.89;41.17;101975.94;5005933;28;20050;-69
2022/05/13 11:04:58;;;;;;;6.90;1.30;;;;;;;20.60;41.64;101982.09;5001729;28;20182;-71
2022/05/13 11:07:48;;;;;;;4.53;1.35;;;;;;;20.15;42.46;101972.44;5002887;28;20046;-69
2022/05/13 11:10:43;;;;;;;6.20;1.10;;;;;;;20.20;42.74;101970.88;5002241;28;20124;-70
2022/05/13 11:13:31;;;;;;;7.57;1.55;;;;;;;20.94;41.52;101980.63;5005147;28;20037;-67
2022/05/13 11:16:15;;;;;;;6.90;1.65;;;;;;;20.87;40.27;101988.25;5010376;28;20046;-68
2022/05/13 11:18:48;;;;;;;3.80;1.25;;;;;;;21.34;39.64;101969.06;5000874;28;20121;-68
2022/05/13 11:21:41;;;;;;;5.22;1.50;;;;;;;21.51;39.15;101972.38;5009884;28;20068;-67
2022/05/13 11:27:51;;;;;;;10.40;2.17;;;;;;;20.40;41.10;101973.75;5000663;28;20116;-69
2022/05/13 11:30:27;;;;;;;3.78;1.30;;;;;;;20.85;40.27;101979.50;5005801;28;20034;-69
2022/05/13 11:32:59;;;;;;;6.85;2.35;;;;;;;21.11;39.41;101981.28;4999121;28;20043;-67
2022/05/13 11:35:30;;;;;;;4.75;1.70;;;;;;;20.88;40.38;101981.69;4995090;28;20076;-68
2022/05/13 11:38:01;;;;;;;6.15;1.33;;;;;;;21.79;38.90;101972.72;5006099;28;20120;-69
2022/05/13 11:40:53;;;;;;;7.80;1.73;;;;;;;21.85;38.64;101984.53;5006838;28;20061;-68
2022/05/13 11:43:43;;;;;;;9.75;1.73;;;;;;;22.46;37.97;101974.38;5006268;28;20524;-69
2022/05/13 11:46:17;;;;;;;6.13;1.80;;;;;;;21.83;38.39;101987.53;5006473;28;20042;-69
2022/05/13 11:48:46;;;;;;;3.92;1.35;;;;;;;21.27;39.19;101993.09;5005746;28;20487;-70
2022/05/13 11:51:29;;;;;;;8.43;1.70;;;;;;;22.06;38.40;101975.22;5007052;28;20156;-70
2022/05/13 11:54:00;;;;;;;6.30;1.85;;;;;;;22.33;37.49;101983.13;5006638;28;20564;-69
2022/05/13 11:56:29;;;;;;;7.95;1.75;;;;;;;22.69;36.57;101979.28;5006280;28;20046;-69
2022/05/13 11:58:56;;;;;;;3.58;1.23;;;;;;;23.03;36.49;101974.78;5006101;28;20042;-69